sensor_id;sensor_type;location;lat;lon;timestamp;P1;durP1;ratioP1;P2;durP2;ratioP2
20896;SDS011;10608;42.600;23.398;2022-10-10T00:00:44;60.93;;;58.40;;
20896;SDS011;10608;42.600;23.398;2022-10-10T00:03:10;71.47;;;68.47;;
20896;SDS011;10608;42.600;23.398;2022-10-10T00:05:36;70.40;;;67.50;;
20896;SDS011;10608;42.600;23.398;2022-10-10T00:08:03;56.30;;;54.00;;
20896;SDS011;10608;42.600;23.398;2022-10-10T00:10:29;65.60;;;62.80;;
20896;SDS011;10608;42.600;23.398;2022-10-10T00:12:54;64.50;;;61.80;;
20896;SDS011;10608;42.600;23.398;2022-10-10T00:15:20;63.27;;;60.57;;
20896;SDS011;10608;42.600;23.398;2022-10-10T00:17:45;64.73;;;61.93;;
20896;SDS011;10608;42.600;23.398;2022-10-10T00:20:12;64.47;;;61.77;;
20896;SDS011;10608;42.600;23.398;2022-10-10T00:22:38;61.60;;;58.93;;
20896;SDS011;10608;42.600;23.398;2022-10-10T00:25:05;66.17;;;63.23;;
20896;SDS011;10608;42.600;23.398;2022-10-10T00:27:32;65.60;;;62.77;;
20896;SDS011;10608;42.600;23.398;2022-10-10T00:29:57;68.67;;;65.77;;
20896;SDS011;10608;42.600;23.398;2022-10-10T00:32:23;96.47;;;92.23;;
20896;SDS011;10608;42.600;23.398;2022-10-10T00:34:48;98.73;;;94.43;;
20896;SDS011;10608;42.600;23.398;2022-10-10T00:37:14;116.13;;;111.03;;
20896;SDS011;10608;42.600;23.398;2022-10-10T00:39:40;88.67;;;84.77;;
20896;SDS011;10608;42.600;23.398;2022-10-10T00:42:05;82.70;;;79.10;;
20896;SDS011;10608;42.600;23.398;2022-10-10T00:44:31;96.33;;;92.23;;
20896;SDS011;10608;42.600;23.398;2022-10-10T00:46:57;86.23;;;82.43;;
20896;SDS011;10608;42.600;23.398;2022-10-10T00:49:23;82.20;;;78.50;;
20896;SDS011;10608;42.600;23.398;2022-10-10T00:51:52;77.63;;;74.23;;
20896;SDS011;10608;42.600;23.398;2022-10-10T00:54:21;88.60;;;84.73;;
20896;SDS011;10608;42.600;23.398;2022-10-10T00:56:52;98.00;;;93.83;;
20896;SDS011;10608;42.600;23.398;2022-10-10T00:59:22;98.77;;;94.67;;
20896;SDS011;10608;42.600;23.398;2022-10-10T01:01:50;97.30;;;93.20;;
20896;SDS011;10608;42.600;23.398;2022-10-10T01:06:56;99.50;;;95.40;;
20896;SDS011;10608;42.600;23.398;2022-10-10T01:09:23;83.87;;;80.47;;
20896;SDS011;10608;42.600;23.398;2022-10-10T01:12:12;78.27;;;75.07;;
20896;SDS011;10608;42.600;23.398;2022-10-10T01:17:32;84.43;;;80.93;;
20896;SDS011;10608;42.600;23.398;2022-10-10T01:20:26;89.10;;;85.40;;
20896;SDS011;10608;42.600;23.398;2022-10-10T01:31:47;79.97;;;76.67;;
20896;SDS011;10608;42.600;23.398;2022-10-10T01:37:08;90.67;;;86.87;;
20896;SDS011;10608;42.600;23.398;2022-10-10T01:42:23;72.40;;;69.20;;
20896;SDS011;10608;42.600;23.398;2022-10-10T01:44:54;61.07;;;58.37;;
20896;SDS011;10608;42.600;23.398;2022-10-10T01:47:20;47.97;;;45.93;;
20896;SDS011;10608;42.600;23.398;2022-10-10T01:49:47;56.60;;;54.10;;
20896;SDS011;10608;42.600;23.398;2022-10-10T01:58:06;67.80;;;64.93;;
20896;SDS011;10608;42.600;23.398;2022-10-10T02:03:37;64.03;;;61.33;;
20896;SDS011;10608;42.600;23.398;2022-10-10T02:06:11;76.23;;;73.07;;
20896;SDS011;10608;42.600;23.398;2022-10-10T02:08:49;90.80;;;86.97;;
20896;SDS011;10608;42.600;23.398;2022-10-10T02:11:23;93.33;;;89.33;;
20896;SDS011;10608;42.600;23.398;2022-10-10T02:13:52;75.03;;;71.77;;
20896;SDS011;10608;42.600;23.398;2022-10-10T02:16:23;51.10;;;48.93;;
20896;SDS011;10608;42.600;23.398;2022-10-10T02:18:53;54.03;;;51.73;;
20896;SDS011;10608;42.600;23.398;2022-10-10T02:21:21;46.87;;;44.90;;
20896;SDS011;10608;42.600;23.398;2022-10-10T02:23:49;40.00;;;38.40;;
20896;SDS011;10608;42.600;23.398;2022-10-10T02:26:16;44.87;;;43.07;;
20896;SDS011;10608;42.600;23.398;2022-10-10T02:28:45;38.50;;;36.90;;
20896;SDS011;10608;42.600;23.398;2022-10-10T02:34:06;39.70;;;38.03;;
20896;SDS011;10608;42.600;23.398;2022-10-10T02:36:40;47.03;;;45.13;;
20896;SDS011;10608;42.600;23.398;2022-10-10T02:39:09;47.50;;;45.57;;
20896;SDS011;10608;42.600;23.398;2022-10-10T02:41:37;52.07;;;49.93;;
20896;SDS011;10608;42.600;23.398;2022-10-10T02:44:04;54.97;;;52.70;;
20896;SDS011;10608;42.600;23.398;2022-10-10T02:46:30;48.90;;;46.90;;
20896;SDS011;10608;42.600;23.398;2022-10-10T02:48:55;42.63;;;40.93;;
20896;SDS011;10608;42.600;23.398;2022-10-10T02:51:22;43.00;;;41.20;;
20896;SDS011;10608;42.600;23.398;2022-10-10T02:53:48;46.57;;;44.60;;
20896;SDS011;10608;42.600;23.398;2022-10-10T02:56:13;40.83;;;39.13;;
20896;SDS011;10608;42.600;23.398;2022-10-10T02:58:39;37.07;;;35.57;;
20896;SDS011;10608;42.600;23.398;2022-10-10T03:01:04;41.33;;;39.63;;
20896;SDS011;10608;42.600;23.398;2022-10-10T03:03:30;41.77;;;40.07;;
20896;SDS011;10608;42.600;23.398;2022-10-10T03:05:55;43.27;;;41.47;;
20896;SDS011;10608;42.600;23.398;2022-10-10T03:08:21;45.67;;;43.77;;
20896;SDS011;10608;42.600;23.398;2022-10-10T03:10:56;42.17;;;40.37;;
20896;SDS011;10608;42.600;23.398;2022-10-10T03:13:23;41.40;;;39.70;;
20896;SDS011;10608;42.600;23.398;2022-10-10T03:15:48;49.60;;;47.50;;
20896;SDS011;10608;42.600;23.398;2022-10-10T03:18:14;43.70;;;41.90;;
20896;SDS011;10608;42.600;23.398;2022-10-10T03:20:39;42.87;;;41.07;;
20896;SDS011;10608;42.600;23.398;2022-10-10T03:23:05;48.00;;;45.93;;
20896;SDS011;10608;42.600;23.398;2022-10-10T03:25:30;44.00;;;42.20;;
20896;SDS011;10608;42.600;23.398;2022-10-10T03:27:58;38.80;;;37.20;;
20896;SDS011;10608;42.600;23.398;2022-10-10T03:30:24;39.40;;;37.80;;
20896;SDS011;10608;42.600;23.398;2022-10-10T03:32:49;47.03;;;45.10;;
20896;SDS011;10608;42.600;23.398;2022-10-10T03:35:15;46.13;;;44.23;;
20896;SDS011;10608;42.600;23.398;2022-10-10T03:37:40;54.70;;;52.40;;
20896;SDS011;10608;42.600;23.398;2022-10-10T03:40:05;45.87;;;43.97;;
20896;SDS011;10608;42.600;23.398;2022-10-10T03:42:31;47.40;;;45.47;;
20896;SDS011;10608;42.600;23.398;2022-10-10T03:44:56;48.23;;;46.23;;
20896;SDS011;10608;42.600;23.398;2022-10-10T03:47:22;63.67;;;61.03;;
20896;SDS011;10608;42.600;23.398;2022-10-10T03:49:47;62.27;;;59.67;;
20896;SDS011;10608;42.600;23.398;2022-10-10T03:52:13;65.77;;;63.07;;
20896;SDS011;10608;42.600;23.398;2022-10-10T03:54:38;65.23;;;62.50;;
20896;SDS011;10608;42.600;23.398;2022-10-10T03:57:03;59.47;;;56.97;;
20896;SDS011;10608;42.600;23.398;2022-10-10T03:59:29;58.97;;;56.40;;
20896;SDS011;10608;42.600;23.398;2022-10-10T04:01:54;50.17;;;48.07;;
20896;SDS011;10608;42.600;23.398;2022-10-10T04:04:20;45.43;;;43.57;;
20896;SDS011;10608;42.600;23.398;2022-10-10T04:06:45;45.23;;;43.33;;
20896;SDS011;10608;42.600;23.398;2022-10-10T04:09:11;53.43;;;51.23;;
20896;SDS011;10608;42.600;23.398;2022-10-10T04:11:36;52.03;;;49.83;;
20896;SDS011;10608;42.600;23.398;2022-10-10T04:14:02;58.37;;;55.97;;
20896;SDS011;10608;42.600;23.398;2022-10-10T04:16:28;55.43;;;53.13;;
20896;SDS011;10608;42.600;23.398;2022-10-10T04:18:53;57.03;;;54.60;;
20896;SDS011;10608;42.600;23.398;2022-10-10T04:21:19;55.93;;;53.53;;
20896;SDS011;10608;42.600;23.398;2022-10-10T04:23:44;59.37;;;56.83;;
20896;SDS011;10608;42.600;23.398;2022-10-10T04:26:10;55.40;;;53.00;;
20896;SDS011;10608;42.600;23.398;2022-10-10T04:28:35;57.17;;;54.67;;
20896;SDS011;10608;42.600;23.398;2022-10-10T04:31:00;59.50;;;56.97;;
20896;SDS011;10608;42.600;23.398;2022-10-10T04:33:26;60.33;;;57.77;;
20896;SDS011;10608;42.600;23.398;2022-10-10T04:35:51;51.57;;;49.40;;
20896;SDS011;10608;42.600;23.398;2022-10-10T04:38:17;54.77;;;52.43;;
20896;SDS011;10608;42.600;23.398;2022-10-10T04:40:43;53.23;;;50.97;;
20896;SDS011;10608;42.600;23.398;2022-10-10T04:43:09;52.10;;;49.87;;
20896;SDS011;10608;42.600;23.398;2022-10-10T04:45:34;51.70;;;49.50;;
20896;SDS011;10608;42.600;23.398;2022-10-10T04:48:00;50.30;;;48.17;;
20896;SDS011;10608;42.600;23.398;2022-10-10T04:50:25;47.87;;;45.87;;
20896;SDS011;10608;42.600;23.398;2022-10-10T04:52:51;46.43;;;44.47;;
20896;SDS011;10608;42.600;23.398;2022-10-10T04:55:16;48.53;;;46.47;;
20896;SDS011;10608;42.600;23.398;2022-10-10T04:57:42;54.67;;;52.30;;
20896;SDS011;10608;42.600;23.398;2022-10-10T05:00:07;45.53;;;43.63;;
20896;SDS011;10608;42.600;23.398;2022-10-10T05:02:33;50.60;;;48.40;;
20896;SDS011;10608;42.600;23.398;2022-10-10T05:04:59;51.60;;;49.50;;
20896;SDS011;10608;42.600;23.398;2022-10-10T05:07:24;51.77;;;49.63;;
20896;SDS011;10608;42.600;23.398;2022-10-10T05:09:50;43.30;;;41.50;;
20896;SDS011;10608;42.600;23.398;2022-10-10T05:12:15;67.73;;;64.90;;
20896;SDS011;10608;42.600;23.398;2022-10-10T05:14:40;51.23;;;49.03;;
20896;SDS011;10608;42.600;23.398;2022-10-10T05:17:06;57.57;;;55.17;;
20896;SDS011;10608;42.600;23.398;2022-10-10T05:19:32;90.53;;;86.73;;
20896;SDS011;10608;42.600;23.398;2022-10-10T05:21:57;85.53;;;81.97;;
20896;SDS011;10608;42.600;23.398;2022-10-10T05:24:23;95.97;;;91.80;;
20896;SDS011;10608;42.600;23.398;2022-10-10T05:26:48;123.80;;;118.30;;
20896;SDS011;10608;42.600;23.398;2022-10-10T05:29:14;108.27;;;103.57;;
20896;SDS011;10608;42.600;23.398;2022-10-10T05:31:39;114.10;;;108.97;;
20896;SDS011;10608;42.600;23.398;2022-10-10T05:34:04;132.80;;;126.93;;
20896;SDS011;10608;42.600;23.398;2022-10-10T05:36:30;83.13;;;79.43;;
20896;SDS011;10608;42.600;23.398;2022-10-10T05:38:55;136.30;;;130.47;;
20896;SDS011;10608;42.600;23.398;2022-10-10T05:41:21;82.00;;;78.50;;
20896;SDS011;10608;42.600;23.398;2022-10-10T05:43:47;59.57;;;57.03;;
20896;SDS011;10608;42.600;23.398;2022-10-10T05:46:12;71.03;;;67.97;;
20896;SDS011;10608;42.600;23.398;2022-10-10T05:48:38;63.57;;;60.87;;
20896;SDS011;10608;42.600;23.398;2022-10-10T05:51:05;72.60;;;69.57;;
20896;SDS011;10608;42.600;23.398;2022-10-10T05:53:31;84.27;;;80.67;;
20896;SDS011;10608;42.600;23.398;2022-10-10T05:55:56;69.70;;;66.73;;
20896;SDS011;10608;42.600;23.398;2022-10-10T05:58:24;53.07;;;50.83;;
20896;SDS011;10608;42.600;23.398;2022-10-10T06:00:50;69.67;;;66.60;;
20896;SDS011;10608;42.600;23.398;2022-10-10T06:03:16;80.53;;;77.17;;
20896;SDS011;10608;42.600;23.398;2022-10-10T06:05:42;76.47;;;73.03;;
20896;SDS011;10608;42.600;23.398;2022-10-10T06:08:09;47.40;;;45.43;;
20896;SDS011;10608;42.600;23.398;2022-10-10T06:10:36;30.80;;;29.53;;
20896;SDS011;10608;42.600;23.398;2022-10-10T06:13:02;131.27;;;125.67;;
20896;SDS011;10608;42.600;23.398;2022-10-10T06:15:28;26.97;;;25.87;;
20896;SDS011;10608;42.600;23.398;2022-10-10T06:17:54;51.43;;;49.33;;
20896;SDS011;10608;42.600;23.398;2022-10-10T06:20:19;60.57;;;58.07;;
20896;SDS011;10608;42.600;23.398;2022-10-10T06:22:45;29.70;;;28.43;;
20896;SDS011;10608;42.600;23.398;2022-10-10T06:25:10;39.83;;;38.17;;
20896;SDS011;10608;42.600;23.398;2022-10-10T06:27:36;43.17;;;41.40;;
20896;SDS011;10608;42.600;23.398;2022-10-10T06:30:02;76.83;;;73.63;;
20896;SDS011;10608;42.600;23.398;2022-10-10T06:32:28;72.60;;;69.60;;
20896;SDS011;10608;42.600;23.398;2022-10-10T06:34:53;67.67;;;64.87;;
20896;SDS011;10608;42.600;23.398;2022-10-10T06:37:19;51.93;;;49.57;;
20896;SDS011;10608;42.600;23.398;2022-10-10T06:39:44;95.63;;;91.80;;
20896;SDS011;10608;42.600;23.398;2022-10-10T06:42:09;98.53;;;94.57;;
20896;SDS011;10608;42.600;23.398;2022-10-10T06:44:35;47.83;;;45.90;;
20896;SDS011;10608;42.600;23.398;2022-10-10T06:47:00;20.63;;;19.83;;
20896;SDS011;10608;42.600;23.398;2022-10-10T06:49:26;30.57;;;29.27;;
20896;SDS011;10608;42.600;23.398;2022-10-10T06:51:51;33.50;;;32.13;;
20896;SDS011;10608;42.600;23.398;2022-10-10T06:54:16;44.10;;;42.30;;
20896;SDS011;10608;42.600;23.398;2022-10-10T06:56:42;227.83;;;218.50;;
20896;SDS011;10608;42.600;23.398;2022-10-10T06:59:07;206.23;;;197.93;;
20896;SDS011;10608;42.600;23.398;2022-10-10T07:01:33;109.27;;;104.87;;
20896;SDS011;10608;42.600;23.398;2022-10-10T07:03:58;53.73;;;51.53;;
20896;SDS011;10608;42.600;23.398;2022-10-10T07:06:23;67.60;;;64.87;;
20896;SDS011;10608;42.600;23.398;2022-10-10T07:08:49;50.30;;;48.20;;
20896;SDS011;10608;42.600;23.398;2022-10-10T07:11:14;31.77;;;30.47;;
20896;SDS011;10608;42.600;23.398;2022-10-10T07:13:40;31.30;;;30.00;;
20896;SDS011;10608;42.600;23.398;2022-10-10T07:16:06;26.23;;;25.17;;
20896;SDS011;10608;42.600;23.398;2022-10-10T07:18:32;40.17;;;38.47;;
20896;SDS011;10608;42.600;23.398;2022-10-10T07:21:00;36.77;;;35.27;;
20896;SDS011;10608;42.600;23.398;2022-10-10T07:23:26;42.87;;;41.10;;
20896;SDS011;10608;42.600;23.398;2022-10-10T07:26:00;75.23;;;72.13;;
20896;SDS011;10608;42.600;23.398;2022-10-10T07:28:27;51.67;;;49.53;;
20896;SDS011;10608;42.600;23.398;2022-10-10T07:30:57;32.37;;;30.97;;
20896;SDS011;10608;42.600;23.398;2022-10-10T07:33:24;48.93;;;46.83;;
20896;SDS011;10608;42.600;23.398;2022-10-10T07:35:53;58.97;;;56.53;;
20896;SDS011;10608;42.600;23.398;2022-10-10T07:38:18;23.20;;;22.13;;
20896;SDS011;10608;42.600;23.398;2022-10-10T07:40:44;19.47;;;18.67;;
20896;SDS011;10608;42.600;23.398;2022-10-10T07:43:09;43.83;;;42.03;;
20896;SDS011;10608;42.600;23.398;2022-10-10T07:45:35;54.57;;;52.23;;
20896;SDS011;10608;42.600;23.398;2022-10-10T07:48:01;30.30;;;29.00;;
20896;SDS011;10608;42.600;23.398;2022-10-10T07:50:27;68.13;;;65.40;;
20896;SDS011;10608;42.600;23.398;2022-10-10T07:52:52;55.90;;;53.50;;
20896;SDS011;10608;42.600;23.398;2022-10-10T07:55:18;59.63;;;57.17;;
20896;SDS011;10608;42.600;23.398;2022-10-10T07:57:43;56.53;;;54.20;;
20896;SDS011;10608;42.600;23.398;2022-10-10T08:00:09;36.13;;;34.67;;
20896;SDS011;10608;42.600;23.398;2022-10-10T08:02:35;41.80;;;40.10;;
20896;SDS011;10608;42.600;23.398;2022-10-10T08:05:01;46.70;;;44.70;;
20896;SDS011;10608;42.600;23.398;2022-10-10T08:07:27;41.07;;;39.37;;
20896;SDS011;10608;42.600;23.398;2022-10-10T08:09:52;43.47;;;41.67;;
20896;SDS011;10608;42.600;23.398;2022-10-10T08:12:18;29.67;;;28.47;;
20896;SDS011;10608;42.600;23.398;2022-10-10T08:14:43;26.03;;;24.97;;
20896;SDS011;10608;42.600;23.398;2022-10-10T08:17:09;86.20;;;82.73;;
20896;SDS011;10608;42.600;23.398;2022-10-10T08:19:34;48.47;;;46.50;;
20896;SDS011;10608;42.600;23.398;2022-10-10T08:22:00;32.20;;;30.90;;
20896;SDS011;10608;42.600;23.398;2022-10-10T08:24:25;27.37;;;26.27;;
20896;SDS011;10608;42.600;23.398;2022-10-10T08:26:51;26.13;;;25.07;;
20896;SDS011;10608;42.600;23.398;2022-10-10T08:29:17;16.57;;;15.90;;
20896;SDS011;10608;42.600;23.398;2022-10-10T08:31:42;15.83;;;15.20;;
20896;SDS011;10608;42.600;23.398;2022-10-10T08:34:08;52.90;;;50.70;;
20896;SDS011;10608;42.600;23.398;2022-10-10T08:36:34;39.03;;;37.43;;
20896;SDS011;10608;42.600;23.398;2022-10-10T08:39:00;67.00;;;64.30;;
20896;SDS011;10608;42.600;23.398;2022-10-10T08:43:57;27.50;;;26.40;;
20896;SDS011;10608;42.600;23.398;2022-10-10T08:46:32;62.53;;;60.03;;
20896;SDS011;10608;42.600;23.398;2022-10-10T08:54:53;80.03;;;76.83;;
20896;SDS011;10608;42.600;23.398;2022-10-10T08:57:25;116.50;;;111.83;;
20896;SDS011;10608;42.600;23.398;2022-10-10T08:59:52;71.47;;;68.57;;
20896;SDS011;10608;42.600;23.398;2022-10-10T09:05:13;25.87;;;24.83;;
20896;SDS011;10608;42.600;23.398;2022-10-10T09:10:36;17.43;;;16.73;;
20896;SDS011;10608;42.600;23.398;2022-10-10T09:16:05;30.03;;;28.77;;
20896;SDS011;10608;42.600;23.398;2022-10-10T09:18:49;22.40;;;21.50;;
20896;SDS011;10608;42.600;23.398;2022-10-10T09:21:32;19.20;;;18.40;;
20896;SDS011;10608;42.600;23.398;2022-10-10T09:24:11;29.63;;;28.33;;
20896;SDS011;10608;42.600;23.398;2022-10-10T09:26:51;43.07;;;41.23;;
20896;SDS011;10608;42.600;23.398;2022-10-10T09:36:58;196.17;;;188.50;;
20896;SDS011;10608;42.600;23.398;2022-10-10T09:42:37;45.47;;;43.60;;
20896;SDS011;10608;42.600;23.398;2022-10-10T09:45:17;38.17;;;36.57;;
20896;SDS011;10608;42.600;23.398;2022-10-10T09:47:45;77.97;;;74.77;;
20896;SDS011;10608;42.600;23.398;2022-10-10T09:50:13;166.50;;;159.97;;
20896;SDS011;10608;42.600;23.398;2022-10-10T09:52:39;211.07;;;202.83;;
20896;SDS011;10608;42.600;23.398;2022-10-10T09:57:53;174.30;;;167.50;;
20896;SDS011;10608;42.600;23.398;2022-10-10T10:00:32;172.97;;;166.17;;
20896;SDS011;10608;42.600;23.398;2022-10-10T10:03:03;183.17;;;176.00;;
20896;SDS011;10608;42.600;23.398;2022-10-10T10:05:29;157.57;;;151.10;;
20896;SDS011;10608;42.600;23.398;2022-10-10T10:07:54;137.93;;;132.17;;
20896;SDS011;10608;42.600;23.398;2022-10-10T10:10:23;137.07;;;131.67;;
20896;SDS011;10608;42.600;23.398;2022-10-10T10:12:51;175.83;;;168.93;;
20896;SDS011;10608;42.600;23.398;2022-10-10T10:15:19;188.23;;;180.93;;
20896;SDS011;10608;42.600;23.398;2022-10-10T10:20:41;133.60;;;128.30;;
20896;SDS011;10608;42.600;23.398;2022-10-10T10:23:23;132.83;;;127.53;;
20896;SDS011;10608;42.600;23.398;2022-10-10T10:25:58;117.23;;;112.53;;
20896;SDS011;10608;42.600;23.398;2022-10-10T10:28:27;105.80;;;101.60;;
20896;SDS011;10608;42.600;23.398;2022-10-10T10:30:54;109.63;;;105.23;;
20896;SDS011;10608;42.600;23.398;2022-10-10T10:33:41;128.67;;;123.47;;
20896;SDS011;10608;42.600;23.398;2022-10-10T10:41:42;128.73;;;123.50;;
20896;SDS011;10608;42.600;23.398;2022-10-10T10:49:54;208.67;;;200.73;;
20896;SDS011;10608;42.600;23.398;2022-10-10T10:55:25;94.60;;;90.80;;
20896;SDS011;10608;42.600;23.398;2022-10-10T11:01:09;39.90;;;38.23;;
20896;SDS011;10608;42.600;23.398;2022-10-10T11:12:04;37.93;;;36.33;;
20896;SDS011;10608;42.600;23.398;2022-10-10T11:17:34;26.27;;;25.17;;
20896;SDS011;10608;42.600;23.398;2022-10-10T11:22:53;17.40;;;16.70;;
20896;SDS011;10608;42.600;23.398;2022-10-10T11:25:44;31.97;;;30.67;;
20896;SDS011;10608;42.600;23.398;2022-10-10T11:31:22;72.60;;;69.63;;
20896;SDS011;10608;42.600;23.398;2022-10-10T11:33:59;63.57;;;60.97;;
20896;SDS011;10608;42.600;23.398;2022-10-10T11:36:33;25.57;;;24.47;;
20896;SDS011;10608;42.600;23.398;2022-10-10T11:42:01;52.77;;;50.57;;
20896;SDS011;10608;42.600;23.398;2022-10-10T11:44:31;92.87;;;89.10;;
20896;SDS011;10608;42.600;23.398;2022-10-10T11:52:33;92.43;;;88.67;;
20896;SDS011;10608;42.600;23.398;2022-10-10T12:00:45;37.97;;;36.40;;
20896;SDS011;10608;42.600;23.398;2022-10-10T12:03:15;37.97;;;36.40;;
20896;SDS011;10608;42.600;23.398;2022-10-10T12:05:46;48.80;;;46.80;;
20896;SDS011;10608;42.600;23.398;2022-10-10T12:08:18;60.07;;;57.63;;
20896;SDS011;10608;42.600;23.398;2022-10-10T12:13:27;67.73;;;64.87;;
20896;SDS011;10608;42.600;23.398;2022-10-10T12:16:00;36.77;;;35.27;;
20896;SDS011;10608;42.600;23.398;2022-10-10T12:21:17;43.77;;;41.87;;
20896;SDS011;10608;42.600;23.398;2022-10-10T12:27:24;114.83;;;110.27;;
20896;SDS011;10608;42.600;23.398;2022-10-10T12:32:43;162.13;;;155.83;;
20896;SDS011;10608;42.600;23.398;2022-10-10T12:38:13;182.13;;;175.07;;
20896;SDS011;10608;42.600;23.398;2022-10-10T12:43:25;173.80;;;167.00;;
20896;SDS011;10608;42.600;23.398;2022-10-10T12:48:44;219.00;;;210.40;;
20896;SDS011;10608;42.600;23.398;2022-10-10T12:51:22;301.87;;;290.00;;
20896;SDS011;10608;42.600;23.398;2022-10-10T12:53:49;245.07;;;235.40;;
20896;SDS011;10608;42.600;23.398;2022-10-10T12:56:30;166.17;;;159.47;;
20896;SDS011;10608;42.600;23.398;2022-10-10T12:59:21;130.07;;;124.80;;
20896;SDS011;10608;42.600;23.398;2022-10-10T13:01:49;77.13;;;73.97;;
20896;SDS011;10608;42.600;23.398;2022-10-10T13:04:19;54.43;;;52.13;;
20896;SDS011;10608;42.600;23.398;2022-10-10T13:06:44;56.47;;;54.10;;
20896;SDS011;10608;42.600;23.398;2022-10-10T13:14:18;267.47;;;256.70;;
20896;SDS011;10608;42.600;23.398;2022-10-10T13:16:45;342.37;;;328.53;;
20896;SDS011;10608;42.600;23.398;2022-10-10T13:19:21;320.73;;;307.90;;
20896;SDS011;10608;42.600;23.398;2022-10-10T13:21:48;217.67;;;208.87;;
20896;SDS011;10608;42.600;23.398;2022-10-10T13:24:16;83.57;;;80.23;;
20896;SDS011;10608;42.600;23.398;2022-10-10T13:26:46;44.93;;;43.10;;
20896;SDS011;10608;42.600;23.398;2022-10-10T13:32:02;34.07;;;32.70;;
20896;SDS011;10608;42.600;23.398;2022-10-10T13:34:32;43.57;;;41.77;;
20896;SDS011;10608;42.600;23.398;2022-10-10T13:37:01;44.13;;;42.33;;
20896;SDS011;10608;42.600;23.398;2022-10-10T13:39:29;35.17;;;33.77;;
20896;SDS011;10608;42.600;23.398;2022-10-10T13:41:56;23.57;;;22.63;;
20896;SDS011;10608;42.600;23.398;2022-10-10T13:44:45;30.63;;;29.23;;
20896;SDS011;10608;42.600;23.398;2022-10-10T13:50:22;40.23;;;38.53;;
20896;SDS011;10608;42.600;23.398;2022-10-10T13:52:48;47.77;;;45.80;;
20896;SDS011;10608;42.600;23.398;2022-10-10T13:55:14;29.60;;;28.40;;
20896;SDS011;10608;42.600;23.398;2022-10-10T13:57:47;26.90;;;25.80;;
20896;SDS011;10608;42.600;23.398;2022-10-10T14:00:15;30.33;;;29.10;;
20896;SDS011;10608;42.600;23.398;2022-10-10T14:02:42;28.13;;;26.77;;
20896;SDS011;10608;42.600;23.398;2022-10-10T14:05:14;32.10;;;30.77;;
20896;SDS011;10608;42.600;23.398;2022-10-10T14:07:47;29.63;;;28.43;;
20896;SDS011;10608;42.600;23.398;2022-10-10T14:10:16;28.40;;;27.23;;
20896;SDS011;10608;42.600;23.398;2022-10-10T14:12:52;29.70;;;28.50;;
20896;SDS011;10608;42.600;23.398;2022-10-10T14:18:25;43.67;;;41.80;;
20896;SDS011;10608;42.600;23.398;2022-10-10T14:20:51;44.90;;;43.07;;
20896;SDS011;10608;42.600;23.398;2022-10-10T14:23:20;50.67;;;48.47;;
20896;SDS011;10608;42.600;23.398;2022-10-10T14:25:46;42.40;;;40.70;;
20896;SDS011;10608;42.600;23.398;2022-10-10T14:28:14;39.73;;;38.10;;
20896;SDS011;10608;42.600;23.398;2022-10-10T14:30:42;38.37;;;36.77;;
20896;SDS011;10608;42.600;23.398;2022-10-10T14:33:09;43.60;;;41.80;;
20896;SDS011;10608;42.600;23.398;2022-10-10T14:35:35;39.27;;;37.67;;
20896;SDS011;10608;42.600;23.398;2022-10-10T14:38:01;45.73;;;43.63;;
20896;SDS011;10608;42.600;23.398;2022-10-10T14:40:26;61.97;;;59.40;;
20896;SDS011;10608;42.600;23.398;2022-10-10T14:42:54;75.20;;;72.13;;
20896;SDS011;10608;42.600;23.398;2022-10-10T14:45:20;67.50;;;64.67;;
20896;SDS011;10608;42.600;23.398;2022-10-10T14:47:45;26.73;;;25.63;;
20896;SDS011;10608;42.600;23.398;2022-10-10T14:52:47;32.27;;;30.97;;
20896;SDS011;10608;42.600;23.398;2022-10-10T14:55:13;29.50;;;28.30;;
20896;SDS011;10608;42.600;23.398;2022-10-10T14:57:38;27.57;;;26.43;;
20896;SDS011;10608;42.600;23.398;2022-10-10T15:00:05;53.17;;;51.00;;
20896;SDS011;10608;42.600;23.398;2022-10-10T15:02:32;81.73;;;78.33;;
20896;SDS011;10608;42.600;23.398;2022-10-10T15:04:58;140.93;;;135.23;;
20896;SDS011;10608;42.600;23.398;2022-10-10T15:07:23;54.27;;;51.90;;
20896;SDS011;10608;42.600;23.398;2022-10-10T15:09:49;29.10;;;27.90;;
20896;SDS011;10608;42.600;23.398;2022-10-10T15:12:14;62.00;;;59.50;;
20896;SDS011;10608;42.600;23.398;2022-10-10T15:14:40;53.93;;;51.73;;
20896;SDS011;10608;42.600;23.398;2022-10-10T15:17:05;36.60;;;35.10;;
20896;SDS011;10608;42.600;23.398;2022-10-10T15:19:31;18.27;;;17.53;;
20896;SDS011;10608;42.600;23.398;2022-10-10T15:21:56;29.57;;;28.37;;
20896;SDS011;10608;42.600;23.398;2022-10-10T15:24:21;64.47;;;61.80;;
20896;SDS011;10608;42.600;23.398;2022-10-10T15:26:47;51.03;;;48.83;;
20896;SDS011;10608;42.600;23.398;2022-10-10T15:29:12;56.70;;;54.40;;
20896;SDS011;10608;42.600;23.398;2022-10-10T15:31:38;30.73;;;29.43;;
20896;SDS011;10608;42.600;23.398;2022-10-10T15:34:03;24.20;;;23.20;;
20896;SDS011;10608;42.600;23.398;2022-10-10T15:36:29;19.90;;;19.10;;
20896;SDS011;10608;42.600;23.398;2022-10-10T15:38:56;58.33;;;55.97;;
20896;SDS011;10608;42.600;23.398;2022-10-10T15:41:22;22.80;;;21.83;;
20896;SDS011;10608;42.600;23.398;2022-10-10T15:43:50;16.53;;;15.90;;
20896;SDS011;10608;42.600;23.398;2022-10-10T15:46:20;22.63;;;21.73;;
20896;SDS011;10608;42.600;23.398;2022-10-10T15:48:47;28.50;;;27.20;;
20896;SDS011;10608;42.600;23.398;2022-10-10T15:51:13;18.57;;;17.77;;
20896;SDS011;10608;42.600;23.398;2022-10-10T15:53:38;26.90;;;25.80;;
20896;SDS011;10608;42.600;23.398;2022-10-10T15:56:05;20.17;;;19.37;;
20896;SDS011;10608;42.600;23.398;2022-10-10T15:58:32;13.77;;;13.17;;
20896;SDS011;10608;42.600;23.398;2022-10-10T16:00:58;21.03;;;20.13;;
20896;SDS011;10608;42.600;23.398;2022-10-10T16:03:24;39.17;;;37.53;;
20896;SDS011;10608;42.600;23.398;2022-10-10T16:05:49;53.57;;;51.37;;
20896;SDS011;10608;42.600;23.398;2022-10-10T16:08:15;23.10;;;22.00;;
20896;SDS011;10608;42.600;23.398;2022-10-10T16:10:43;17.90;;;17.20;;
20896;SDS011;10608;42.600;23.398;2022-10-10T16:13:08;18.03;;;17.30;;
20896;SDS011;10608;42.600;23.398;2022-10-10T16:15:34;33.03;;;31.67;;
20896;SDS011;10608;42.600;23.398;2022-10-10T16:18:00;26.00;;;24.93;;
20896;SDS011;10608;42.600;23.398;2022-10-10T16:20:26;29.00;;;27.83;;
20896;SDS011;10608;42.600;23.398;2022-10-10T16:22:51;24.43;;;23.33;;
20896;SDS011;10608;42.600;23.398;2022-10-10T16:25:16;28.53;;;27.33;;
20896;SDS011;10608;42.600;23.398;2022-10-10T16:27:42;24.50;;;23.50;;
20896;SDS011;10608;42.600;23.398;2022-10-10T16:30:08;22.27;;;21.37;;
20896;SDS011;10608;42.600;23.398;2022-10-10T16:32:33;22.77;;;21.87;;
20896;SDS011;10608;42.600;23.398;2022-10-10T16:34:59;28.10;;;26.90;;
20896;SDS011;10608;42.600;23.398;2022-10-10T16:37:24;23.50;;;22.50;;
20896;SDS011;10608;42.600;23.398;2022-10-10T16:39:50;33.33;;;31.90;;